Time;durP1;ratioP1;P1;durP2;ratioP2;P2;SDS_P1;SDS_P2;PMS_P1;PMS_P2;Temp;Humidity;BMP_temperature;BMP_pressure;BME280_temperature;BME280_humidity;BME280_pressure;Samples;Min_cycle;Max_cycle;Signal;HPM_P1;HPM_P2
2021/05/16 00:00:57;;;;;;;2.33;1.87;;;10.00;99.90;;;;;;4976887;28;20338;-79
2021/05/16 00:03:23;;;;;;;6.80;1.97;;;10.00;99.90;;;;;;4959823;28;20964;-78
2021/05/16 00:05:49;;;;;;;2.43;1.50;;;10.00;99.90;;;;;;4974878;28;20263;-78
2021/05/16 00:08:16;;;;;;;6.77;2.10;;;10.00;99.90;;;;;;4975816;28;20673;-78
2021/05/16 00:10:42;;;;;;;3.07;1.93;;;10.00;99.90;;;;;;4975981;28;20221;-78
2021/05/16 00:13:08;;;;;;;2.73;1.97;;;10.00;99.90;;;;;;4975001;28;20178;-78
2021/05/16 00:15:34;;;;;;;4.40;2.40;;;10.00;99.90;;;;;;4975431;28;20204;-78
2021/05/16 00:18:01;;;;;;;2.50;2.03;;;10.00;99.90;;;;;;4978227;28;20174;-79
2021/05/16 00:20:30;;;;;;;3.43;2.00;;;10.10;99.90;;;;;;4963593;28;20207;-80
2021/05/16 00:22:59;;;;;;;4.40;2.20;;;10.10;99.90;;;;;;4978991;28;20193;-82
2021/05/16 00:25:29;;;;;;;3.27;2.20;;;10.10;99.90;;;;;;4979729;28;20181;-80
2021/05/16 00:27:56;;;;;;;4.60;2.40;;;10.10;99.90;;;;;;4965193;28;20602;-82
2021/05/16 00:30:22;;;;;;;4.17;2.10;;;10.00;99.90;;;;;;4979208;28;20235;-79
2021/05/16 00:32:48;;;;;;;4.73;2.40;;;10.00;99.90;;;;;;4995607;28;20188;-81
2021/05/16 00:35:15;;;;;;;3.47;2.37;;;10.10;99.90;;;;;;4979035;28;20203;-79
2021/05/16 00:37:42;;;;;;;4.50;2.40;;;10.00;99.90;;;;;;4980599;28;20190;-79
2021/05/16 00:40:09;;;;;;;3.83;2.07;;;10.10;99.90;;;;;;4977669;28;20650;-77
2021/05/16 00:42:35;;;;;;;4.07;1.87;;;10.10;99.90;;;;;;4976638;28;20264;-77
2021/05/16 00:45:05;;;;;;;3.70;1.93;;;10.10;99.90;;;;;;4977500;28;20204;-77
2021/05/16 00:47:31;;;;;;;3.43;1.87;;;10.10;99.90;;;;;;4977351;28;20562;-78
2021/05/16 00:49:57;;;;;;;3.53;1.93;;;10.00;99.90;;;;;;4977810;28;20179;-78
2021/05/16 00:52:26;;;;;;;3.40;2.07;;;10.00;99.90;;;;;;4978576;28;20212;-80
2021/05/16 00:54:55;;;;;;;3.10;1.90;;;10.00;99.90;;;;;;4978470;28;20185;-79
2021/05/16 00:57:24;;;;;;;3.80;1.80;;;10.00;99.90;;;;;;4994920;28;20256;-78
2021/05/16 00:59:51;;;;;;;2.70;2.00;;;10.00;99.90;;;;;;4978419;28;20181;-78
2021/05/16 01:02:18;;;;;;;3.87;1.90;;;10.00;99.90;;;;;;4977584;28;20202;-77
2021/05/16 01:04:45;;;;;;;5.00;2.37;;;10.00;99.90;;;;;;4977529;28;20212;-78
2021/05/16 01:07:10;;;;;;;4.57;1.90;;;10.00;99.90;;;;;;4977350;28;20189;-79
2021/05/16 01:09:37;;;;;;;2.47;1.70;;;10.00;99.90;;;;;;4977855;28;20184;-78
2021/05/16 01:12:05;;;;;;;3.17;1.63;;;9.90;99.90;;;;;;4978353;28;20228;-81
2021/05/16 01:14:33;;;;;;;3.37;1.70;;;9.90;99.90;;;;;;4978439;28;20238;-79
2021/05/16 01:17:01;;;;;;;2.03;1.57;;;9.90;99.90;;;;;;4978103;28;20213;-79
2021/05/16 01:19:27;;;;;;;7.77;2.40;;;10.00;99.90;;;;;;4961240;28;20178;-76
2021/05/16 01:21:54;;;;;;;4.53;1.87;;;10.00;99.90;;;;;;4977730;28;20198;-78
2021/05/16 01:24:23;;;;;;;2.17;1.90;;;10.00;99.90;;;;;;4978081;28;20182;-79
2021/05/16 01:26:49;;;;;;;2.03;1.70;;;10.00;99.90;;;;;;4978130;28;20194;-79
2021/05/16 01:29:14;;;;;;;2.33;2.00;;;10.00;99.90;;;;;;4979302;28;20180;-79
2021/05/16 01:31:42;;;;;;;4.27;1.70;;;10.00;99.90;;;;;;4978381;28;20204;-80
2021/05/16 01:34:08;;;;;;;4.70;1.93;;;10.00;99.90;;;;;;4962971;28;20180;-79
2021/05/16 01:36:35;;;;;;;4.20;1.77;;;10.10;99.90;;;;;;4981069;28;20763;-78
2021/05/16 01:39:05;;;;;;;3.63;1.80;;;10.10;99.90;;;;;;4999693;28;20246;-78
2021/05/16 01:41:31;;;;;;;3.27;1.37;;;10.00;99.90;;;;;;5032251;23;20235;-73
2021/05/16 01:43:58;;;;;;;5.03;1.63;;;10.00;99.90;;;;;;5037852;28;20246;-73
2021/05/16 01:46:23;;;;;;;4.00;1.80;;;10.00;99.90;;;;;;5037467;28;20172;-73
2021/05/16 01:48:49;;;;;;;4.97;1.97;;;10.00;99.90;;;;;;5037707;28;20182;-73
2021/05/16 01:51:14;;;;;;;4.50;2.07;;;10.00;99.90;;;;;;5054128;28;20272;-73
2021/05/16 01:53:40;;;;;;;3.73;1.80;;;10.00;99.90;;;;;;5037587;28;20227;-73
2021/05/16 01:56:06;;;;;;;3.13;1.80;;;10.00;99.90;;;;;;5037220;28;20198;-73
2021/05/16 01:58:32;;;;;;;4.83;1.90;;;10.00;99.90;;;;;;5020960;28;20595;-73
2021/05/16 02:00:57;;;;;;;4.30;1.70;;;10.00;99.90;;;;;;5054933;28;20196;-73
2021/05/16 02:03:23;;;;;;;4.70;1.70;;;10.00;99.90;;;;;;5020805;28;20182;-73
2021/05/16 02:05:49;;;;;;;3.10;1.87;;;10.00;99.90;;;;;;5037182;28;20186;-73
2021/05/16 02:08:15;;;;;;;3.80;1.87;;;10.00;99.90;;;;;;5036660;28;20178;-73
2021/05/16 02:10:43;;;;;;;2.43;1.77;;;10.10;99.90;;;;;;5020595;28;20287;-73
2021/05/16 02:13:09;;;;;;;4.50;1.77;;;10.10;99.90;;;;;;5037501;28;20224;-73
2021/05/16 02:15:35;;;;;;;2.10;1.30;;;10.10;99.90;;;;;;5036937;28;20206;-73
2021/05/16 02:18:01;;;;;;;4.67;1.67;;;10.10;99.90;;;;;;5037260;28;20250;-73
2021/05/16 02:20:27;;;;;;;5.43;1.70;;;10.10;99.90;;;;;;5036983;28;20645;-73
2021/05/16 02:22:53;;;;;;;4.53;1.77;;;10.10;99.90;;;;;;5036865;28;20176;-73
2021/05/16 02:25:19;;;;;;;2.63;1.40;;;10.10;99.90;;;;;;5053394;28;20649;-73
2021/05/16 02:27:47;;;;;;;2.40;1.37;;;10.10;99.90;;;;;;5036655;28;20179;-73
2021/05/16 02:30:13;;;;;;;2.67;1.50;;;10.10;99.90;;;;;;5053538;28;20206;-73
2021/05/16 02:32:38;;;;;;;2.63;1.47;;;10.10;99.90;;;;;;5053329;28;20228;-73
2021/05/16 02:35:13;;;;;;;4.27;1.37;;;10.20;99.90;;;;;;5020229;28;20201;-73
2021/05/16 02:37:38;;;;;;;3.07;1.70;;;10.20;99.90;;;;;;5037093;28;20167;-73
2021/05/16 02:40:05;;;;;;;5.07;1.40;;;10.20;99.90;;;;;;5036733;28;20199;-73
2021/05/16 02:42:30;;;;;;;5.07;1.50;;;10.20;99.90;;;;;;5052967;28;20221;-73
2021/05/16 02:44:56;;;;;;;3.03;1.73;;;10.20;99.90;;;;;;5020213;28;20178;-73
2021/05/16 02:47:22;;;;;;;4.93;1.60;;;10.20;99.90;;;;;;5052873;28;20179;-73
2021/05/16 02:49:47;;;;;;;4.33;1.60;;;10.20;99.90;;;;;;5036603;28;20171;-73
2021/05/16 02:52:13;;;;;;;4.63;1.47;;;10.20;99.90;;;;;;5052875;28;20392;-73
2021/05/16 02:54:38;;;;;;;5.80;1.80;;;10.20;99.90;;;;;;5036531;28;20170;-73
2021/05/16 02:57:04;;;;;;;5.13;1.67;;;10.10;99.90;;;;;;5036124;28;20738;-73
2021/05/16 02:59:30;;;;;;;3.57;1.90;;;10.10;99.90;;;;;;5036171;28;20176;-73
2021/05/16 03:01:55;;;;;;;2.97;1.80;;;10.20;99.90;;;;;;5054071;28;20250;-73
2021/05/16 03:04:21;;;;;;;4.27;1.80;;;10.20;99.90;;;;;;5052822;28;20171;-72
2021/05/16 03:06:47;;;;;;;4.87;1.97;;;10.10;99.90;;;;;;5035962;28;20217;-73
2021/05/16 03:09:12;;;;;;;5.20;2.10;;;10.10;99.90;;;;;;5036090;28;20174;-73
2021/05/16 03:11:38;;;;;;;4.83;1.87;;;10.10;99.90;;;;;;5053927;28;20691;-73
2021/05/16 03:14:03;;;;;;;1.83;1.60;;;10.10;99.90;;;;;;5019385;28;20639;-73
2021/05/16 03:16:29;;;;;;;4.57;2.00;;;10.10;99.90;;;;;;5035844;28;20242;-73
2021/05/16 03:18:54;;;;;;;3.93;1.67;;;10.10;99.90;;;;;;5019442;28;20180;-73
2021/05/16 03:21:20;;;;;;;6.60;2.03;;;10.10;99.90;;;;;;5052420;28;20218;-72
2021/05/16 03:23:46;;;;;;;4.93;2.00;;;10.20;99.90;;;;;;5052402;28;20175;-73
2021/05/16 03:26:11;;;;;;;6.97;2.13;;;10.20;99.90;;;;;;5052305;28;20191;-73
2021/05/16 03:28:37;;;;;;;5.90;2.10;;;10.20;99.90;;;;;;5052425;28;20214;-73
2021/05/16 03:31:02;;;;;;;3.17;2.10;;;10.10;99.90;;;;;;5019209;28;20563;-73
2021/05/16 03:33:28;;;;;;;5.53;1.87;;;10.20;99.90;;;;;;5053522;28;20591;-73
2021/05/16 03:35:53;;;;;;;5.03;2.50;;;10.20;99.90;;;;;;5053239;28;20257;-73
2021/05/16 03:38:19;;;;;;;6.20;1.73;;;10.20;99.90;;;;;;5052249;28;20245;-73
2021/05/16 03:40:45;;;;;;;4.77;1.93;;;10.20;99.90;;;;;;5035425;28;20257;-73
2021/05/16 03:43:10;;;;;;;4.73;2.33;;;10.20;99.90;;;;;;5052090;28;20172;-73
2021/05/16 03:45:36;;;;;;;6.27;1.57;;;10.20;99.90;;;;;;5051972;28;20230;-72
2021/05/16 03:48:01;;;;;;;5.10;1.80;;;10.30;99.90;;;;;;5018895;28;20185;-73
2021/05/16 03:50:27;;;;;;;2.90;1.43;;;10.20;99.90;;;;;;5051408;28;20210;-73
2021/05/16 03:52:53;;;;;;;10.43;2.00;;;10.20;99.90;;;;;;5051909;28;20645;-73
2021/05/16 03:55:19;;;;;;;4.90;1.60;;;10.30;99.90;;;;;;5051950;28;20203;-72
2021/05/16 03:57:45;;;;;;;2.57;1.40;;;10.20;99.90;;;;;;5051164;28;20177;-72
2021/05/16 04:00:11;;;;;;;7.20;1.67;;;10.30;99.90;;;;;;5052066;28;20173;-73
2021/05/16 04:02:37;;;;;;;2.83;1.53;;;10.20;99.90;;;;;;5051817;28;20194;-72
2021/05/16 04:05:03;;;;;;;3.97;1.43;;;10.20;99.90;;;;;;5052978;28;20181;-73
2021/05/16 04:07:28;;;;;;;2.00;0.93;;;10.20;99.90;;;;;;5051562;28;20257;-73
2021/05/16 04:09:54;;;;;;;4.50;1.63;;;10.20;99.90;;;;;;5052836;28;20175;-73
2021/05/16 04:12:19;;;;;;;5.47;1.40;;;10.30;99.90;;;;;;5051455;28;20202;-73
2021/05/16 04:14:49;;;;;;;5.00;1.50;;;10.20;99.90;;;;;;5051579;28;20642;-73
2021/05/16 04:17:14;;;;;;;2.73;1.10;;;10.20;99.90;;;;;;5035257;28;20178;-72
2021/05/16 04:19:40;;;;;;;3.50;1.20;;;10.20;99.90;;;;;;5051313;28;20181;-73
2021/05/16 04:22:05;;;;;;;6.07;1.10;;;10.20;99.90;;;;;;5034606;28;20198;-73
2021/05/16 04:24:31;;;;;;;4.73;1.10;;;10.20;99.90;;;;;;5034664;28;20176;-73
2021/05/16 04:26:57;;;;;;;4.67;1.33;;;10.20;99.90;;;;;;5051196;28;20180;-73
2021/05/16 04:29:22;;;;;;;3.00;1.40;;;10.20;99.90;;;;;;5052578;28;20183;-73
2021/05/16 04:31:48;;;;;;;3.90;1.17;;;10.20;99.90;;;;;;5034550;28;20322;-73
2021/05/16 04:34:13;;;;;;;3.50;1.87;;;10.20;99.90;;;;;;5051198;28;20181;-73
2021/05/16 04:36:39;;;;;;;6.60;1.80;;;10.20;99.90;;;;;;5050994;28;20293;-73
2021/05/16 04:39:05;;;;;;;4.23;1.30;;;10.20;99.90;;;;;;5050970;28;20211;-73
2021/05/16 04:41:33;;;;;;;4.80;1.60;;;10.20;99.90;;;;;;5051160;28;20246;-73
2021/05/16 04:43:59;;;;;;;4.10;2.37;;;10.30;99.90;;;;;;5034876;28;20193;-73
2021/05/16 04:46:24;;;;;;;6.13;1.90;;;10.30;99.90;;;;;;5050848;28;20186;-73
2021/05/16 04:48:50;;;;;;;6.60;1.77;;;10.30;99.90;;;;;;5052287;28;20184;-73
2021/05/16 04:51:15;;;;;;;5.77;2.07;;;10.30;99.90;;;;;;5052209;28;20203;-73
2021/05/16 04:53:41;;;;;;;4.67;1.50;;;10.40;99.90;;;;;;5034287;28;20192;-72
2021/05/16 04:56:06;;;;;;;6.43;1.80;;;10.40;99.90;;;;;;5050677;28;20215;-73
2021/05/16 04:58:32;;;;;;;6.53;1.90;;;10.40;99.90;;;;;;5051004;28;20215;-73
2021/05/16 05:00:58;;;;;;;4.33;1.50;;;10.40;99.90;;;;;;5050977;28;20196;-73
2021/05/16 05:03:24;;;;;;;4.30;1.23;;;10.40;99.90;;;;;;5050899;28;20179;-73
2021/05/16 05:05:53;;;;;;;5.30;1.80;;;10.40;99.90;;;;;;5050576;28;20187;-73
2021/05/16 05:08:19;;;;;;;3.20;1.03;;;10.40;99.90;;;;;;5050246;28;20188;-73
2021/05/16 05:10:44;;;;;;;3.73;1.10;;;10.40;99.90;;;;;;5033560;28;20231;-73
2021/05/16 05:13:10;;;;;;;3.23;1.50;;;10.40;99.90;;;;;;5051053;28;20182;-73
2021/05/16 05:15:35;;;;;;;3.23;0.80;;;10.50;99.90;;;;;;5050454;28;20203;-73
2021/05/16 05:18:01;;;;;;;4.77;1.23;;;10.40;99.90;;;;;;5050342;28;20649;-73
2021/05/16 05:20:27;;;;;;;1.27;0.80;;;10.40;99.90;;;;;;5050514;28;20178;-73
2021/05/16 05:22:52;;;;;;;8.13;1.40;;;10.50;99.90;;;;;;5050744;28;20634;-73
2021/05/16 05:25:18;;;;;;;2.43;1.20;;;10.50;99.90;;;;;;5050665;28;20215;-73
2021/05/16 05:27:44;;;;;;;3.33;1.20;;;10.50;99.90;;;;;;5050572;28;20190;-73
2021/05/16 05:30:10;;;;;;;3.73;1.40;;;10.50;99.90;;;;;;5051961;28;20183;-73
2021/05/16 05:32:35;;;;;;;2.53;1.13;;;10.50;99.90;;;;;;5050559;28;20263;-73
2021/05/16 05:35:01;;;;;;;4.30;1.33;;;10.60;99.90;;;;;;5050358;28;20183;-73
2021/05/16 05:37:26;;;;;;;3.93;1.30;;;10.60;99.90;;;;;;5050457;28;20181;-73
2021/05/16 05:39:52;;;;;;;3.30;1.27;;;10.60;99.90;;;;;;5050425;28;20181;-73
2021/05/16 05:42:17;;;;;;;6.10;1.33;;;10.70;99.90;;;;;;5050587;28;20216;-72
2021/05/16 05:44:43;;;;;;;3.27;1.50;;;10.60;99.90;;;;;;5050063;28;20182;-73
2021/05/16 05:47:09;;;;;;;2.03;1.17;;;10.60;99.90;;;;;;5050281;28;20184;-73
2021/05/16 05:49:34;;;;;;;6.77;1.97;;;10.60;99.90;;;;;;5050706;28;20180;-73
2021/05/16 05:52:00;;;;;;;4.90;1.30;;;10.70;99.90;;;;;;5050547;28;20209;-73
2021/05/16 05:54:27;;;;;;;4.93;1.50;;;10.60;99.90;;;;;;5033766;28;20190;-73
2021/05/16 05:56:52;;;;;;;6.87;1.77;;;10.70;99.90;;;;;;5050171;28;20701;-73
2021/05/16 05:59:18;;;;;;;3.87;1.43;;;10.70;99.90;;;;;;5051499;28;20187;-73
2021/05/16 06:01:43;;;;;;;6.47;2.10;;;10.70;99.90;;;;;;5050177;28;20192;-73
2021/05/16 06:04:09;;;;;;;4.87;1.70;;;10.70;99.90;;;;;;5050165;28;20783;-73
2021/05/16 06:06:34;;;;;;;3.67;1.37;;;10.70;99.90;;;;;;5049916;28;20639;-73
2021/05/16 06:09:00;;;;;;;4.80;2.00;;;10.70;99.90;;;;;;5050316;28;20553;-73
2021/05/16 06:11:25;;;;;;;2.60;1.63;;;10.70;99.90;;;;;;5050096;28;20640;-73
2021/05/16 06:13:51;;;;;;;2.73;1.80;;;10.70;99.90;;;;;;5033622;28;20181;-73
2021/05/16 06:16:17;;;;;;;5.83;2.07;;;10.70;99.90;;;;;;5033249;28;20261;-73
2021/05/16 06:18:42;;;;;;;3.40;1.73;;;10.80;99.90;;;;;;5050324;28;20661;-73
2021/05/16 06:21:08;;;;;;;6.47;2.93;;;10.90;99.90;;;;;;5053835;28;20572;-73
2021/05/16 06:23:45;;;;;;;4.40;2.33;;;10.90;99.90;;;;;;5051845;28;20182;-73
2021/05/16 06:26:10;;;;;;;3.83;2.10;;;11.00;99.90;;;;;;5037609;28;20239;-73
2021/05/16 06:28:36;;;;;;;4.17;2.27;;;11.10;99.90;;;;;;5040124;28;20194;-73
2021/05/16 06:31:01;;;;;;;6.40;2.70;;;11.10;99.90;;;;;;5017087;28;20297;-73
2021/05/16 06:33:27;;;;;;;4.13;2.60;;;11.10;99.90;;;;;;5050201;28;20185;-73
2021/05/16 06:35:52;;;;;;;4.87;2.43;;;11.10;99.90;;;;;;5033159;28;20214;-73
2021/05/16 06:38:18;;;;;;;4.63;2.67;;;11.20;99.90;;;;;;5034672;28;20181;-73
2021/05/16 06:40:44;;;;;;;6.03;2.77;;;11.30;99.90;;;;;;5049826;28;20331;-73
2021/05/16 06:43:11;;;;;;;4.53;2.53;;;11.40;99.90;;;;;;5033323;28;20177;-73
2021/05/16 06:45:36;;;;;;;7.87;2.70;;;11.30;99.90;;;;;;5034414;28;20607;-73
2021/05/16 06:48:02;;;;;;;7.57;3.40;;;11.30;99.90;;;;;;5057569;28;20290;-73
2021/05/16 06:50:28;;;;;;;5.63;3.33;;;11.40;99.90;;;;;;5052677;28;20208;-73
2021/05/16 06:52:53;;;;;;;10.13;3.73;;;11.50;99.90;;;;;;5052533;28;20181;-73
2021/05/16 06:55:19;;;;;;;6.50;3.70;;;11.70;99.90;;;;;;5052606;28;20298;-73
2021/05/16 06:57:45;;;;;;;9.57;4.10;;;12.10;99.90;;;;;;5035643;28;20182;-72
2021/05/16 07:00:12;;;;;;;6.80;3.90;;;12.90;99.90;;;;;;5052511;28;20177;-73
2021/05/16 07:02:37;;;;;;;7.27;3.67;;;13.20;99.90;;;;;;5049142;28;20276;-73
2021/05/16 07:05:03;;;;;;;5.60;3.60;;;13.00;99.90;;;;;;5032864;28;20310;-73
2021/05/16 07:07:29;;;;;;;8.60;3.97;;;12.90;99.90;;;;;;5050198;28;20171;-73
2021/05/16 07:09:54;;;;;;;5.47;3.83;;;13.10;99.90;;;;;;5051206;28;20266;-73
2021/05/16 07:12:20;;;;;;;10.03;5.63;;;13.30;99.90;;;;;;5049201;28;20188;-73
2021/05/16 07:14:45;;;;;;;7.80;4.60;;;13.30;99.90;;;;;;5050723;28;20184;-73
2021/05/16 07:17:11;;;;;;;6.93;4.73;;;12.90;99.90;;;;;;5027009;28;20282;-73
2021/05/16 07:19:36;;;;;;;11.60;5.27;;;12.60;99.90;;;;;;5044039;28;20636;-73
2021/05/16 07:22:02;;;;;;;10.03;5.13;;;13.00;99.90;;;;;;5025429;28;20678;-73
2021/05/16 07:24:28;;;;;;;9.07;5.10;;;13.50;99.90;;;;;;5014120;28;20213;-73
2021/05/16 07:26:53;;;;;;;7.67;5.27;;;13.90;99.90;;;;;;5050618;28;20194;-72
2021/05/16 07:29:19;;;;;;;7.60;5.00;;;14.00;99.90;;;;;;5049760;28;20181;-72
2021/05/16 07:31:44;;;;;;;8.63;5.03;;;14.50;99.90;;;;;;5031166;28;20704;-71
2021/05/16 07:34:10;;;;;;;8.13;5.47;;;14.80;99.90;;;;;;5042159;28;20190;-71
2021/05/16 07:36:35;;;;;;;8.33;4.63;;;14.50;99.90;;;;;;5018262;28;20202;-71
2021/05/16 07:39:01;;;;;;;7.87;4.70;;;13.90;99.90;;;;;;5050349;28;20572;-71
2021/05/16 07:41:27;;;;;;;9.80;4.73;;;13.70;99.90;;;;;;5053281;28;20316;-72
2021/05/16 07:43:52;;;;;;;6.33;4.77;;;13.80;99.90;;;;;;5052650;28;20645;-73
2021/05/16 07:46:18;;;;;;;6.30;4.00;;;13.50;99.90;;;;;;5035890;28;20185;-72
2021/05/16 07:48:44;;;;;;;7.27;5.10;;;13.30;99.90;;;;;;5035657;28;20216;-73
2021/05/16 07:51:09;;;;;;;7.87;4.77;;;13.10;99.90;;;;;;5052447;28;20280;-72
2021/05/16 07:53:35;;;;;;;8.40;4.30;;;12.90;99.90;;;;;;5053631;28;20181;-73
2021/05/16 07:56:03;;;;;;;9.20;4.73;;;12.90;99.90;;;;;;5051841;28;20201;-72
2021/05/16 07:58:28;;;;;;;7.43;4.40;;;13.00;99.90;;;;;;5042364;28;20572;-73
2021/05/16 08:00:54;;;;;;;6.17;3.73;;;13.00;99.90;;;;;;5020509;28;20209;-77
2021/05/16 08:03:19;;;;;;;8.27;4.57;;;13.00;99.90;;;;;;5052421;28;20177;-75
2021/05/16 08:05:45;;;;;;;7.80;3.93;;;13.00;99.90;;;;;;5035729;28;20268;-74
2021/05/16 08:08:11;;;;;;;7.97;4.07;;;13.10;99.90;;;;;;5052114;28;20170;-72
2021/05/16 08:10:37;;;;;;;6.80;4.07;;;13.30;99.90;;;;;;5051940;28;20170;-73
2021/05/16 08:13:02;;;;;;;10.43;4.20;;;13.40;99.90;;;;;;5051993;28;20177;-74
2021/05/16 08:15:28;;;;;;;5.83;4.13;;;13.40;99.90;;;;;;5051742;28;20202;-74
2021/05/16 08:17:53;;;;;;;7.30;3.60;;;13.50;99.90;;;;;;5034869;28;20174;-76
2021/05/16 08:20:19;;;;;;;4.60;3.80;;;13.40;99.90;;;;;;5052743;28;20192;-73
2021/05/16 08:22:44;;;;;;;6.00;3.57;;;13.10;99.90;;;;;;5051921;28;20253;-72
2021/05/16 08:25:11;;;;;;;6.33;3.97;;;12.80;99.90;;;;;;5052550;28;20185;-72
2021/05/16 08:27:38;;;;;;;5.97;3.67;;;12.70;99.90;;;;;;5035119;28;20174;-72
2021/05/16 08:30:04;;;;;;;8.47;4.27;;;12.80;99.90;;;;;;5029503;28;20206;-73
2021/05/16 08:32:30;;;;;;;5.10;3.87;;;12.90;99.90;;;;;;5034907;28;20565;-77
2021/05/16 08:34:55;;;;;;;6.93;4.03;;;12.80;99.90;;;;;;5034854;28;20168;-72
2021/05/16 08:37:21;;;;;;;6.83;4.10;;;12.70;99.90;;;;;;5034632;28;20211;-73
2021/05/16 08:39:46;;;;;;;7.30;4.70;;;12.80;99.90;;;;;;5051555;28;20178;-73
2021/05/16 08:42:12;;;;;;;9.37;4.60;;;12.90;99.90;;;;;;5018116;28;20343;-73
2021/05/16 08:44:37;;;;;;;5.77;4.00;;;13.00;99.90;;;;;;5051139;28;20527;-72
2021/05/16 08:47:03;;;;;;;6.10;3.67;;;13.20;99.90;;;;;;5034731;28;20178;-73
2021/05/16 08:49:29;;;;;;;7.67;3.20;;;13.20;99.90;;;;;;5052132;28;20291;-82
2021/05/16 08:51:54;;;;;;;6.63;3.27;;;13.20;99.90;;;;;;5017891;28;20610;-72
2021/05/16 08:54:20;;;;;;;4.70;3.10;;;13.20;99.90;;;;;;5051439;28;20182;-72
2021/05/16 08:56:50;;;;;;;10.67;3.03;;;13.40;99.90;;;;;;5034858;28;20607;-72
2021/05/16 08:59:15;;;;;;;4.37;3.17;;;13.10;99.90;;;;;;5035527;28;20201;-82
2021/05/16 09:01:48;;;;;;;5.63;3.07;;;13.20;99.90;;;;;;5035119;28;20193;-71
2021/05/16 09:04:36;;;;;;;5.47;3.20;;;13.30;99.90;;;;;;5034894;28;20219;-74
2021/05/16 09:07:02;;;;;;;4.47;2.93;;;13.40;99.90;;;;;;5051102;28;20162;-75
2021/05/16 09:09:33;;;;;;;8.13;3.40;;;13.60;99.90;;;;;;5051209;28;20556;-74
2021/05/16 09:12:05;;;;;;;5.17;2.97;;;13.60;99.90;;;;;;5014862;28;20587;-72
2021/05/16 09:14:47;;;;;;;5.80;2.90;;;13.70;99.90;;;;;;5045206;28;20230;-72
2021/05/16 09:17:34;;;;;;;5.37;2.97;;;13.90;99.90;;;;;;5018580;28;20209;-73
2021/05/16 09:20:01;;;;;;;5.67;3.03;;;14.30;99.90;;;;;;5034608;28;20179;-72
2021/05/16 09:22:46;;;;;;;7.00;3.10;;;14.80;99.90;;;;;;5052142;28;20200;-72
2021/05/16 09:25:11;;;;;;;4.03;3.00;;;15.30;99.90;;;;;;5030734;28;20174;-77
2021/05/16 09:27:37;;;;;;;3.47;2.40;;;15.60;99.90;;;;;;5041844;28;20178;-74
2021/05/16 09:30:15;;;;;;;5.43;2.27;;;15.50;99.90;;;;;;5050563;28;20699;-73
2021/05/16 09:33:01;;;;;;;3.53;2.00;;;15.40;99.90;;;;;;5051916;28;20189;-73
2021/05/16 09:35:33;;;;;;;3.63;1.50;;;15.20;99.90;;;;;;5031655;28;20190;-73
2021/05/16 09:38:06;;;;;;;3.73;1.80;;;15.00;99.90;;;;;;5031119;28;20317;-73
2021/05/16 09:40:57;;;;;;;3.83;1.30;;;15.00;99.90;;;;;;5031836;28;20170;-76
2021/05/16 09:43:30;;;;;;;3.93;1.17;;;14.90;99.90;;;;;;5031016;28;20160;-73
2021/05/16 09:46:01;;;;;;;4.00;1.20;;;14.60;99.90;;;;;;5015455;28;20670;-73
2021/05/16 09:48:30;;;;;;;4.47;1.10;;;14.40;99.90;;;;;;5030455;28;20186;-73
2021/05/16 09:51:09;;;;;;;6.37;1.50;;;14.40;99.90;;;;;;5030446;28;20201;-73
2021/05/16 09:53:51;;;;;;;1.57;0.77;;;14.70;99.90;;;;;;5025206;28;20257;-73
2021/05/16 09:56:18;;;;;;;4.73;1.47;;;14.80;99.90;;;;;;5030109;28;20739;-72
2021/05/16 09:58:43;;;;;;;2.90;1.40;;;14.90;99.90;;;;;;5054292;28;20586;-72
2021/05/16 10:01:09;;;;;;;4.27;1.87;;;15.10;99.90;;;;;;5054141;28;20194;-73
2021/05/16 10:03:35;;;;;;;5.97;1.40;;;15.40;99.90;;;;;;5054101;28;20214;-74
2021/05/16 10:06:01;;;;;;;4.07;1.57;;;15.80;99.90;;;;;;5037768;28;20694;-75
2021/05/16 10:08:27;;;;;;;5.90;1.80;;;15.90;99.90;;;;;;5036842;28;20179;-74
2021/05/16 10:10:52;;;;;;;3.97;1.23;;;16.10;99.90;;;;;;5045791;28;20207;-73
2021/05/16 10:13:18;;;;;;;3.10;1.27;;;16.30;99.90;;;;;;5031626;28;20567;-74
2021/05/16 10:15:44;;;;;;;4.10;1.13;;;16.30;99.90;;;;;;5035916;28;20276;-74
2021/05/16 10:18:09;;;;;;;6.90;1.27;;;16.40;99.90;;;;;;5034770;28;20302;-75
2021/05/16 10:20:37;;;;;;;3.07;1.30;;;16.50;99.90;;;;;;5036179;28;20180;-72
2021/05/16 10:23:04;;;;;;;2.57;1.50;;;16.40;99.90;;;;;;5053388;28;20201;-73
2021/05/16 10:25:46;;;;;;;2.37;1.33;;;16.30;99.90;;;;;;5053549;28;20209;-73
2021/05/16 10:28:14;;;;;;;4.67;1.33;;;16.00;99.90;;;;;;5037173;28;20178;-72
2021/05/16 10:30:41;;;;;;;1.93;1.20;;;15.90;99.90;;;;;;5020485;28;20296;-73
2021/05/16 10:33:07;;;;;;;2.87;1.50;;;15.80;99.90;;;;;;5053377;28;20198;-73
2021/05/16 10:35:51;;;;;;;2.63;1.43;;;15.70;99.90;;;;;;5053379;28;20601;-73
2021/05/16 10:38:42;;;;;;;2.90;1.37;;;15.60;99.90;;;;;;5053158;28;20193;-72
2021/05/16 10:41:15;;;;;;;1.00;0.80;;;15.60;99.90;;;;;;5053111;28;20624;-72
2021/05/16 10:43:40;;;;;;;3.73;1.47;;;15.20;99.90;;;;;;5043590;28;20174;-71
2021/05/16 10:46:38;;;;;;;3.90;1.40;;;14.90;99.90;;;;;;5040493;28;20193;-72
2021/05/16 10:49:20;;;;;;;1.83;1.37;;;14.60;99.90;;;;;;5037971;28;20662;-71
2021/05/16 10:51:45;;;;;;;1.67;1.10;;;13.90;99.90;;;;;;5033929;28;20199;-71
2021/05/16 10:54:43;;;;;;;2.63;1.23;;;13.30;99.90;;;;;;5040767;28;20189;-71
2021/05/16 10:57:18;;;;;;;1.83;1.33;;;12.90;99.90;;;;;;5025317;28;20253;-71
2021/05/16 10:59:45;;;;;;;3.57;1.60;;;12.80;99.90;;;;;;5017249;28;20182;-71
2021/05/16 11:02:10;;;;;;;1.40;1.30;;;12.80;99.90;;;;;;5019353;28;20215;-71
2021/05/16 11:04:50;;;;;;;1.77;1.47;;;12.80;99.90;;;;;;5032989;28;20190;-72
2021/05/16 11:07:34;;;;;;;3.40;1.40;;;12.90;99.90;;;;;;5025015;28;20216;-72
2021/05/16 11:10:26;;;;;;;4.27;1.90;;;12.90;99.90;;;;;;5037000;28;20665;-71
2021/05/16 11:12:51;;;;;;;2.47;1.43;;;13.20;99.90;;;;;;5045460;28;20642;-71
2021/05/16 11:15:23;;;;;;;4.30;1.80;;;13.20;99.90;;;;;;5043526;28;20261;-76
2021/05/16 11:17:50;;;;;;;2.10;1.90;;;13.30;99.90;;;;;;5048309;28;20182;-74
2021/05/16 11:20:17;;;;;;;5.17;1.60;;;13.30;99.90;;;;;;5036834;28;20175;-73
2021/05/16 11:22:43;;;;;;;1.97;1.43;;;13.50;99.90;;;;;;5035962;28;20190;-72
2021/05/16 11:25:09;;;;;;;3.07;1.93;;;13.80;99.90;;;;;;5033970;28;20185;-74
2021/05/16 11:27:35;;;;;;;3.30;1.90;;;14.10;99.90;;;;;;5008135;28;20297;-73
2021/05/16 11:30:05;;;;;;;4.17;1.63;;;14.50;99.90;;;;;;5020003;28;20202;-76
2021/05/16 11:32:32;;;;;;;3.70;2.30;;;14.80;99.90;;;;;;5035540;28;20229;-75
2021/05/16 11:35:19;;;;;;;1.77;1.00;;;15.00;99.90;;;;;;5031907;28;20522;-75
2021/05/16 11:37:49;;;;;;;3.67;1.23;;;15.20;99.90;;;;;;5052031;28;20182;-75
2021/05/16 11:40:19;;;;;;;3.37;1.20;;;15.30;99.90;;;;;;5051860;28;20182;-76
2021/05/16 11:42:45;;;;;;;3.60;1.23;;;15.40;99.90;;;;;;5030739;28;20476;-77
2021/05/16 11:45:11;;;;;;;4.97;1.30;;;15.50;99.90;;;;;;5019063;28;20661;-74
2021/05/16 11:47:40;;;;;;;3.43;1.00;;;15.70;99.90;;;;;;5051199;28;20264;-74
2021/05/16 11:50:07;;;;;;;1.63;1.10;;;15.90;99.90;;;;;;5051682;28;20174;-73
2021/05/16 11:52:32;;;;;;;3.20;1.10;;;16.00;99.90;;;;;;5038740;28;20202;-81
2021/05/16 11:55:05;;;;;;;1.13;0.93;;;16.00;99.90;;;;;;5038581;28;20185;-80
2021/05/16 11:57:31;;;;;;;1.37;0.90;;;16.00;99.90;;;;;;5046934;28;20179;-79
2021/05/16 11:59:56;;;;;;;3.57;1.40;;;15.90;99.90;;;;;;5006119;28;20539;-72
2021/05/16 12:02:22;;;;;;;4.83;1.07;;;15.60;99.90;;;;;;5016478;28;20714;-77
2021/05/16 12:04:48;;;;;;;1.20;0.87;;;15.40;99.90;;;;;;5017871;28;20201;-74
2021/05/16 12:07:13;;;;;;;3.43;1.17;;;15.20;99.90;;;;;;5051837;28;20167;-75
2021/05/16 12:09:40;;;;;;;1.00;0.83;;;15.10;99.90;;;;;;5035475;28;20182;-74
2021/05/16 12:12:18;;;;;;;2.27;1.23;;;15.10;99.90;;;;;;5051635;28;20214;-75
2021/05/16 12:14:44;;;;;;;4.33;1.00;;;15.20;99.90;;;;;;5029484;28;20239;-75
2021/05/16 12:17:10;;;;;;;1.80;1.17;;;15.10;99.90;;;;;;5035912;28;20194;-73
2021/05/16 12:19:37;;;;;;;1.50;0.70;;;15.10;99.90;;;;;;5051743;28;20171;-74
2021/05/16 12:22:13;;;;;;;2.07;0.80;;;15.10;99.90;;;;;;5035362;28;20232;-73
2021/05/16 12:24:46;;;;;;;2.90;0.73;;;14.90;99.90;;;;;;5036584;28;20534;-75
2021/05/16 12:27:12;;;;;;;0.87;0.80;;;14.80;99.90;;;;;;5036021;28;20220;-77
2021/05/16 12:29:40;;;;;;;2.13;0.87;;;14.90;99.90;;;;;;5035433;28;20174;-73
2021/05/16 12:32:06;;;;;;;1.70;0.80;;;14.90;99.90;;;;;;5050546;28;20735;-73
2021/05/16 12:34:32;;;;;;;1.93;0.60;;;15.00;99.90;;;;;;5050501;28;20178;-73
2021/05/16 12:37:03;;;;;;;2.37;0.70;;;15.10;99.90;;;;;;5033794;28;20708;-76
2021/05/16 12:39:36;;;;;;;1.97;0.80;;;15.10;99.90;;;;;;5034982;28;20583;-72
2021/05/16 12:42:02;;;;;;;1.53;0.77;;;15.30;99.90;;;;;;5051773;28;20252;-75
2021/05/16 12:44:27;;;;;;;0.87;0.80;;;15.40;99.90;;;;;;5049718;28;20198;-72
2021/05/16 12:46:54;;;;;;;2.93;0.60;;;15.50;99.90;;;;;;5015447;28;20174;-72